createdAt,value
2017-09-14T00:00:31.258Z,46.61
2017-09-14T00:01:40.911Z,46.51
2017-09-14T00:02:50.251Z,46.23
2017-09-14T00:03:58.948Z,46.42
2017-09-14T00:05:08.940Z,46.23
2017-09-14T00:06:18.276Z,46.42
2017-09-14T00:07:27.931Z,46.42
2017-09-14T00:08:36.949Z,46.42
2017-09-14T00:09:46.608Z,46.42
2017-09-14T00:10:56.262Z,46.51
2017-09-14T00:12:05.918Z,46.51
2017-09-14T00:13:14.940Z,46.42
2017-09-14T00:14:24.278Z,46.13
2017-09-14T00:15:33.934Z,46.51
2017-09-14T00:16:42.947Z,46.42
2017-09-14T00:17:52.602Z,46.33
2017-09-14T00:19:02.579Z,46.13
2017-09-14T00:20:11.276Z,46.03
2017-09-14T00:21:20.295Z,46.23
2017-09-14T00:22:29.308Z,46.23
2017-09-14T00:23:38.005Z,46.61
2017-09-14T00:24:47.367Z,46.33
2017-09-14T00:25:56.999Z,46.13
2017-09-14T00:27:06.014Z,46.03
2017-09-14T00:28:15.034Z,46.42
2017-09-14T00:29:23.731Z,46.71
2017-09-14T00:30:32.749Z,46.42
2017-09-14T00:31:42.087Z,46.23
2017-09-14T00:32:51.102Z,46.33
2017-09-14T00:34:00.126Z,46.51
2017-09-14T00:35:09.142Z,46.51
2017-09-14T00:36:18.475Z,46.51
2017-09-14T00:37:28.133Z,46.23
2017-09-14T00:38:36.830Z,46.42
2017-09-14T00:39:45.525Z,46.42
2017-09-14T00:40:55.185Z,46.33
2017-09-14T00:42:04.206Z,46.13
2017-09-14T00:43:13.544Z,46.42
2017-09-14T00:44:23.212Z,46.13
2017-09-14T00:45:32.864Z,46.42
2017-09-14T00:46:42.200Z,46.33
2017-09-14T00:47:50.895Z,46.13
2017-09-14T00:48:59.910Z,46.42
2017-09-14T00:50:08.932Z,46.33
2017-09-14T00:51:17.949Z,46.33
2017-09-14T00:52:26.965Z,46.51
2017-09-14T00:53:36.305Z,46.13
2017-09-14T00:54:45.644Z,46.23
2017-09-14T00:55:54.660Z,46.33
2017-09-14T00:57:03.996Z,46.42
2017-09-14T00:58:12.692Z,46.33
2017-09-14T00:59:21.390Z,46.33
2017-09-14T01:00:30.093Z,46.42
2017-09-14T01:01:38.785Z,46.23
2017-09-14T01:02:47.800Z,46.23
2017-09-14T01:03:56.496Z,46.23
2017-09-14T01:05:06.154Z,46.42
2017-09-14T01:06:14.850Z,46.42
2017-09-14T01:07:23.866Z,46.13
2017-09-14T01:08:33.533Z,46.03
2017-09-14T01:09:42.230Z,46.03
2017-09-14T01:10:51.576Z,45.84
2017-09-14T01:12:00.590Z,45.94
2017-09-14T01:13:10.248Z,45.72
2017-09-14T01:14:19.296Z,45.82
2017-09-14T01:15:28.609Z,46.23
2017-09-14T01:16:37.623Z,46.01
2017-09-14T01:17:46.638Z,46.03
2017-09-14T01:18:55.658Z,46.01
2017-09-14T01:20:04.997Z,45.92
2017-09-14T01:21:14.336Z,46.13
2017-09-14T01:22:23.995Z,46.11
2017-09-14T01:23:33.330Z,46.01
2017-09-14T01:24:42.991Z,46.33
2017-09-14T01:25:52.322Z,46.01
2017-09-14T01:27:01.335Z,45.92
2017-09-14T01:28:10.990Z,45.92
2017-09-14T01:29:20.006Z,45.62
2017-09-14T01:30:29.340Z,45.72
2017-09-14T01:31:38.682Z,45.62
2017-09-14T01:32:48.016Z,45.72
2017-09-14T01:33:57.398Z,45.72
2017-09-14T01:35:07.376Z,45.62
2017-09-14T01:36:16.393Z,45.43
2017-09-14T01:37:25.088Z,45.92
2017-09-14T01:38:34.739Z,45.82
2017-09-14T01:39:44.072Z,46.11
2017-09-14T01:40:52.767Z,45.72
2017-09-14T01:42:01.783Z,45.92
2017-09-14T01:43:11.118Z,45.72
2017-09-14T01:44:20.778Z,45.92
2017-09-14T01:45:30.753Z,45.82
2017-09-14T01:46:40.413Z,45.43
2017-09-14T01:47:49.750Z,45.82
2017-09-14T01:48:58.765Z,45.92
2017-09-14T01:50:07.779Z,45.92
2017-09-14T01:51:17.115Z,45.43
2017-09-14T01:52:26.133Z,45.53
2017-09-14T01:53:35.152Z,45.72
2017-09-14T01:54:43.846Z,46.01
2017-09-14T01:55:52.542Z,45.24
2017-09-14T01:57:01.564Z,45.43
2017-09-14T01:58:10.257Z,45.04
2017-09-14T01:59:19.272Z,45.34
2017-09-14T02:00:28.291Z,45.34
2017-09-14T02:01:37.943Z,45.34
2017-09-14T02:02:47.279Z,45.24
2017-09-14T02:03:56.295Z,45.14
2017-09-14T02:05:04.990Z,44.85
2017-09-14T02:06:14.643Z,45.43
2017-09-14T02:07:23.342Z,45.04
2017-09-14T02:08:32.038Z,44.95
2017-09-14T02:09:40.735Z,44.95
2017-09-14T02:10:50.067Z,45.04
2017-09-14T02:11:59.083Z,44.85
2017-09-14T02:13:08.097Z,45.04
2017-09-14T02:14:17.433Z,44.85
2017-09-14T02:15:26.766Z,45.14
2017-09-14T02:16:35.784Z,44.95
2017-09-14T02:17:45.123Z,44.95
2017-09-14T02:18:53.819Z,45.43
2017-09-14T02:20:02.839Z,44.85
2017-09-14T02:21:12.176Z,44.95
2017-09-14T02:22:21.190Z,45.24
2017-09-14T02:23:30.522Z,45.24
2017-09-14T02:24:39.857Z,45.24
2017-09-14T02:25:49.191Z,44.95
2017-09-14T02:26:58.845Z,44.85
2017-09-14T02:28:07.541Z,44.85
2017-09-14T02:29:16.555Z,44.85
2017-09-14T02:30:25.571Z,45.04
2017-09-14T02:31:34.587Z,45.04
2017-09-14T02:32:44.239Z,44.85
2017-09-14T02:33:53.256Z,44.95
2017-09-14T02:35:02.593Z,44.76
2017-09-14T02:36:12.568Z,44.85
2017-09-14T02:37:22.220Z,44.76
2017-09-14T02:38:31.235Z,44.95
2017-09-14T02:39:40.250Z,45.14
2017-09-14T02:40:49.904Z,45.04
2017-09-14T02:41:58.601Z,44.95
2017-09-14T02:43:08.257Z,45.14
2017-09-14T02:44:17.274Z,45.14
2017-09-14T02:45:26.288Z,44.85
2017-09-14T02:46:35.627Z,44.66
2017-09-14T02:47:44.647Z,44.66
2017-09-14T02:48:54.299Z,45.04
2017-09-14T02:50:03.320Z,44.95
2017-09-14T02:51:12.980Z,44.95
2017-09-14T02:52:21.676Z,44.46
2017-09-14T02:53:30.370Z,44.85
2017-09-14T02:54:39.705Z,44.66
2017-09-14T02:55:49.048Z,44.76
2017-09-14T02:56:58.064Z,44.56
2017-09-14T02:58:06.759Z,44.66
2017-09-14T02:59:15.454Z,44.46
2017-09-14T03:00:24.474Z,44.66
2017-09-14T03:01:34.447Z,44.46
2017-09-14T03:02:43.463Z,44.76
2017-09-14T03:03:53.126Z,44.76
2017-09-14T03:05:02.143Z,44.56
2017-09-14T03:06:11.158Z,44.76
2017-09-14T03:07:20.494Z,44.76
2017-09-14T03:08:29.193Z,44.66
2017-09-14T03:09:38.532Z,44.66
2017-09-14T03:10:47.549Z,44.66
2017-09-14T03:11:56.570Z,44.76
2017-09-14T03:13:06.540Z,44.76
2017-09-14T03:14:16.196Z,44.46
2017-09-14T03:15:25.212Z,44.56
2017-09-14T03:16:34.226Z,44.56
2017-09-14T03:17:43.242Z,44.56
2017-09-14T03:18:52.258Z,44.66
2017-09-14T03:20:01.280Z,44.76
2017-09-14T03:21:10.296Z,44.76
2017-09-14T03:22:19.310Z,44.66
2017-09-14T03:23:28.007Z,44.56
2017-09-14T03:24:37.023Z,44.56
2017-09-14T03:25:46.681Z,44.66
2017-09-14T03:26:55.377Z,44.66
2017-09-14T03:28:04.069Z,44.66
2017-09-14T03:29:13.723Z,44.46
2017-09-14T03:30:23.379Z,44.56
2017-09-14T03:31:32.398Z,44.66
2017-09-14T03:32:41.414Z,44.56
2017-09-14T03:33:50.753Z,44.66
2017-09-14T03:35:00.088Z,44.66
2017-09-14T03:36:09.104Z,44.66
2017-09-14T03:37:17.801Z,44.46
2017-09-14T03:38:26.814Z,44.66
2017-09-14T03:39:35.829Z,44.66
2017-09-14T03:40:44.844Z,44.66
2017-09-14T03:41:54.180Z,44.66
2017-09-14T03:43:03.521Z,44.56
2017-09-14T03:44:12.535Z,44.56
2017-09-14T03:45:21.549Z,44.56
2017-09-14T03:46:30.243Z,44.56
2017-09-14T03:47:39.263Z,44.46
2017-09-14T03:48:48.948Z,44.76
2017-09-14T03:49:57.645Z,44.66
2017-09-14T03:51:06.659Z,44.56
2017-09-14T03:52:16.312Z,44.18
2017-09-14T03:53:25.646Z,44.18
2017-09-14T03:54:34.980Z,44.18
2017-09-14T03:55:44.657Z,44.66
2017-09-14T03:56:53.352Z,44.37
2017-09-14T03:58:02.687Z,44.27
2017-09-14T03:59:11.382Z,44.27
2017-09-14T04:00:20.396Z,44.08
2017-09-14T04:01:29.090Z,44.46
2017-09-14T04:02:38.423Z,44.27
2017-09-14T04:03:47.757Z,44.27
2017-09-14T04:04:56.453Z,44.37
2017-09-14T04:06:05.470Z,44.46
2017-09-14T04:07:14.806Z,44.46
2017-09-14T04:08:23.819Z,44.27
2017-09-14T04:09:33.152Z,44.56
2017-09-14T04:10:41.847Z,44.37
2017-09-14T04:11:51.215Z,44.46
2017-09-14T04:13:00.230Z,44.46
2017-09-14T04:14:09.563Z,43.98
2017-09-14T04:15:18.899Z,44.18
2017-09-14T04:16:27.913Z,44.08
2017-09-14T04:17:36.929Z,44.27
2017-09-14T04:18:46.588Z,44.37
2017-09-14T04:19:55.603Z,44.27
2017-09-14T04:21:04.937Z,43.98
2017-09-14T04:22:14.273Z,44.18
2017-09-14T04:23:23.294Z,44.37
2017-09-14T04:24:32.308Z,44.37
2017-09-14T04:25:41.324Z,44.37
2017-09-14T04:26:50.657Z,44.37
2017-09-14T04:27:59.674Z,44.37
2017-09-14T04:29:09.329Z,44.46
2017-09-14T04:30:18.023Z,44.46
2017-09-14T04:31:27.357Z,44.37
2017-09-14T04:32:36.692Z,44.18
2017-09-14T04:33:45.707Z,44.27
2017-09-14T04:34:55.040Z,44.27
2017-09-14T04:36:05.022Z,44.46
2017-09-14T04:37:14.680Z,43.89
2017-09-14T04:38:24.370Z,44.18
2017-09-14T04:39:33.675Z,44.08
2017-09-14T04:40:42.692Z,44.08
2017-09-14T04:41:52.024Z,44.08
2017-09-14T04:43:01.041Z,43.89
2017-09-14T04:44:10.376Z,44.18
2017-09-14T04:45:20.032Z,44.08
2017-09-14T04:46:29.367Z,43.89
2017-09-14T04:47:38.062Z,44.46
2017-09-14T04:48:47.078Z,44.18
2017-09-14T04:49:56.413Z,43.89
2017-09-14T04:51:06.074Z,44.37
2017-09-14T04:52:15.091Z,43.89
2017-09-14T04:53:24.425Z,43.89
2017-09-14T04:54:34.088Z,44.08
2017-09-14T04:55:43.426Z,44.08
2017-09-14T04:56:53.082Z,43.89
2017-09-14T04:58:02.099Z,44.18
2017-09-14T04:59:11.754Z,44.18
2017-09-14T05:00:21.097Z,44.18
2017-09-14T05:01:30.433Z,44.37
2017-09-14T05:02:39.772Z,44.37
2017-09-14T05:03:49.104Z,43.89
2017-09-14T05:04:58.120Z,43.89
2017-09-14T05:06:07.138Z,44.56
2017-09-14T05:07:17.120Z,44.37
2017-09-14T05:08:26.458Z,44.08
2017-09-14T05:09:35.478Z,44.08
2017-09-14T05:10:44.816Z,44.46
2017-09-14T05:11:53.831Z,44.46
2017-09-14T05:13:03.170Z,44.27
2017-09-14T05:14:11.866Z,44.46
2017-09-14T05:15:21.522Z,44.46
2017-09-14T05:16:30.540Z,44.08
2017-09-14T05:17:40.201Z,44.27
2017-09-14T05:18:49.534Z,43.7
2017-09-14T05:19:58.230Z,43.89
2017-09-14T05:21:08.209Z,43.89
2017-09-14T05:22:18.191Z,43.89
2017-09-14T05:23:27.204Z,43.7
2017-09-14T05:24:35.904Z,43.72
2017-09-14T05:25:45.239Z,43.91
2017-09-14T05:26:53.931Z,44.18
2017-09-14T05:28:02.948Z,43.79
2017-09-14T05:29:11.963Z,43.89
2017-09-14T05:30:21.006Z,43.81
2017-09-14T05:31:30.313Z,43.5
2017-09-14T05:32:39.657Z,43.72
2017-09-14T05:33:48.673Z,44.1
2017-09-14T05:34:57.689Z,44.2
2017-09-14T05:36:06.384Z,43.72
2017-09-14T05:37:15.400Z,44.01
2017-09-14T05:38:24.417Z,43.62
2017-09-14T05:39:33.753Z,43.81
2017-09-14T05:40:43.409Z,43.81
2017-09-14T05:41:52.743Z,43.81
2017-09-14T05:43:01.760Z,43.91
2017-09-14T05:44:10.778Z,43.62
2017-09-14T05:45:20.432Z,44.01
2017-09-14T05:46:29.451Z,43.91
2017-09-14T05:47:38.148Z,43.72
2017-09-14T05:48:47.802Z,43.72
2017-09-14T05:49:56.816Z,43.52
2017-09-14T05:51:05.859Z,44.01
2017-09-14T05:52:14.845Z,43.72
2017-09-14T05:53:23.538Z,43.33
2017-09-14T05:54:32.552Z,43.52
2017-09-14T05:55:41.247Z,43.43
2017-09-14T05:56:50.582Z,43.43
2017-09-14T05:57:59.914Z,43.43
2017-09-14T05:59:09.248Z,43.14
2017-09-14T06:00:18.899Z,43.14
2017-09-14T06:01:28.553Z,43.14
2017-09-14T06:02:38.217Z,43.14
2017-09-14T06:03:47.878Z,43.04
2017-09-14T06:04:56.892Z,42.94
2017-09-14T06:06:06.228Z,43.04
2017-09-14T06:07:15.568Z,42.94
2017-09-14T06:08:24.906Z,42.94
2017-09-14T06:09:33.921Z,42.66
2017-09-14T06:10:42.933Z,42.85
2017-09-14T06:11:52.271Z,42.94
2017-09-14T06:13:01.944Z,42.75
2017-09-14T06:14:11.284Z,42.56
2017-09-14T06:15:20.621Z,42.75
2017-09-14T06:16:30.599Z,42.94
2017-09-14T06:17:40.253Z,42.85
2017-09-14T06:18:49.270Z,43.24
2017-09-14T06:19:58.604Z,42.85
2017-09-14T06:21:07.626Z,42.66
2017-09-14T06:22:16.957Z,42.85
2017-09-14T06:23:26.291Z,43.04
2017-09-14T06:24:35.309Z,43.04
2017-09-14T06:25:44.645Z,43.14
2017-09-14T06:26:54.943Z,42.85
2017-09-14T06:28:03.637Z,43.24
2017-09-14T06:29:12.975Z,42.75
2017-09-14T06:30:21.992Z,43.04
2017-09-14T06:31:31.008Z,43.04
2017-09-14T06:32:40.663Z,43.04
2017-09-14T06:33:49.358Z,42.75
2017-09-14T06:34:58.376Z,43.43
2017-09-14T06:36:07.071Z,42.66
2017-09-14T06:37:16.767Z,42.75
2017-09-14T06:38:25.782Z,42.75
2017-09-14T06:39:35.437Z,42.75
2017-09-14T06:40:44.451Z,42.56
2017-09-14T06:41:53.789Z,42.94
2017-09-14T06:43:03.124Z,42.66
2017-09-14T06:44:12.140Z,42.75
2017-09-14T06:45:20.836Z,42.75
2017-09-14T06:46:29.530Z,42.85
2017-09-14T06:47:39.214Z,42.66
2017-09-14T06:48:49.195Z,42.75
2017-09-14T06:49:58.531Z,42.66
2017-09-14T06:51:07.547Z,42.75
2017-09-14T06:52:16.896Z,42.75
2017-09-14T06:53:26.229Z,42.66
2017-09-14T06:54:35.245Z,43.24
2017-09-14T06:55:44.262Z,42.66
2017-09-14T06:56:53.916Z,42.75
2017-09-14T06:58:03.250Z,42.75
2017-09-14T06:59:12.264Z,42.75
2017-09-14T07:00:21.279Z,42.66
2017-09-14T07:01:29.978Z,42.66
2017-09-14T07:02:38.991Z,42.46
2017-09-14T07:03:48.324Z,42.75
2017-09-14T07:04:57.340Z,42.46
2017-09-14T07:06:06.353Z,42.94
2017-09-14T07:07:15.687Z,42.46
2017-09-14T07:08:25.369Z,42.36
2017-09-14T07:09:34.385Z,43.04
2017-09-14T07:10:43.725Z,42.94
2017-09-14T07:11:52.423Z,42.75
2017-09-14T07:13:02.081Z,42.56
2017-09-14T07:14:10.776Z,42.56
2017-09-14T07:15:19.472Z,42.18
2017-09-14T07:16:28.170Z,42.56
2017-09-14T07:17:37.188Z,42.36
2017-09-14T07:18:47.522Z,42.36
2017-09-14T07:19:56.538Z,42.56
2017-09-14T07:21:05.875Z,42.46
2017-09-14T07:22:15.532Z,42.36
2017-09-14T07:23:24.868Z,42.36
2017-09-14T07:24:33.882Z,42.08
2017-09-14T07:25:43.538Z,42.18
2017-09-14T07:26:52.235Z,42.18
2017-09-14T07:28:01.568Z,42.18
2017-09-14T07:29:10.902Z,42.29
2017-09-14T07:30:19.917Z,42
2017-09-14T07:31:29.256Z,41.81
2017-09-14T07:32:38.915Z,41.61
2017-09-14T07:33:48.247Z,41.52
2017-09-14T07:34:57.263Z,40.94
2017-09-14T07:36:06.601Z,41.33
2017-09-14T07:37:15.619Z,41.42
2017-09-14T07:38:25.278Z,41.33
2017-09-14T07:39:34.296Z,41.33
2017-09-14T07:40:43.955Z,41.33
2017-09-14T07:41:53.302Z,41.23
2017-09-14T07:43:02.639Z,41.23
2017-09-14T07:44:11.341Z,41.23
2017-09-14T07:45:20.359Z,41.33
2017-09-14T07:46:29.374Z,41.03
2017-09-14T07:47:38.396Z,41.52
2017-09-14T07:48:47.776Z,41.03
2017-09-14T07:49:56.796Z,41.03
2017-09-14T07:51:05.817Z,41.33
2017-09-14T07:52:14.840Z,41.42
2017-09-14T07:53:23.542Z,41.33
2017-09-14T07:54:32.878Z,40.94
2017-09-14T07:55:42.212Z,41.23
2017-09-14T07:56:51.546Z,41.91
2017-09-14T07:58:00.882Z,41.23
2017-09-14T07:59:10.540Z,42
2017-09-14T08:00:19.553Z,41.3
2017-09-14T08:01:28.248Z,41.33
2017-09-14T08:02:37.582Z,41.33
2017-09-14T08:03:46.918Z,41.33
2017-09-14T08:04:55.934Z,41.23
2017-09-14T08:06:05.594Z,41.23
2017-09-14T08:07:14.608Z,41.23
2017-09-14T08:08:23.630Z,41.42
2017-09-14T08:09:33.283Z,41.52
2017-09-14T08:10:42.300Z,41.52
2017-09-14T08:11:51.641Z,41.69
2017-09-14T08:13:00.979Z,41.3
2017-09-14T08:14:10.638Z,41.42
2017-09-14T08:15:19.651Z,41.61
2017-09-14T08:16:29.033Z,41.52
2017-09-14T08:17:38.054Z,41.52
2017-09-14T08:18:47.712Z,41.52
2017-09-14T08:19:56.732Z,41.33
2017-09-14T08:21:06.077Z,41.33
2017-09-14T08:22:15.418Z,41.33
2017-09-14T08:23:24.438Z,41.81
2017-09-14T08:24:33.453Z,41.91
2017-09-14T08:25:42.475Z,41.33
2017-09-14T08:26:51.813Z,41.52
2017-09-14T08:28:01.150Z,42
2017-09-14T08:29:10.490Z,42
2017-09-14T08:30:19.503Z,41.91
2017-09-14T08:31:28.836Z,42
2017-09-14T08:32:37.852Z,42
2017-09-14T08:33:46.869Z,42.1
2017-09-14T08:34:56.527Z,41.52
2017-09-14T08:36:05.543Z,41.61
2017-09-14T08:37:14.560Z,41.52
2017-09-14T08:38:24.217Z,41.61
2017-09-14T08:39:33.234Z,41.52
2017-09-14T08:40:42.254Z,41.61
2017-09-14T08:41:51.626Z,41.33
2017-09-14T08:43:01.289Z,41.33
2017-09-14T08:44:10.630Z,41.52
2017-09-14T08:45:19.966Z,41.42
2017-09-14T08:46:29.303Z,41.33
2017-09-14T08:47:38.317Z,41.52
2017-09-14T08:48:47.968Z,41.33
2017-09-14T08:49:57.622Z,40.94
2017-09-14T08:51:07.596Z,40.57
2017-09-14T08:52:17.252Z,41.44
2017-09-14T08:53:26.271Z,40.96
2017-09-14T08:54:35.616Z,41.44
2017-09-14T08:55:44.630Z,40.67
2017-09-14T08:56:53.643Z,40.77
2017-09-14T08:58:03.615Z,40.96
2017-09-14T08:59:12.635Z,41.05
2017-09-14T09:00:21.330Z,40.94
2017-09-14T09:01:30.029Z,41.03
2017-09-14T09:02:38.724Z,41.03
2017-09-14T09:03:48.386Z,41.33
2017-09-14T09:04:57.401Z,41.42
2017-09-14T09:06:06.740Z,41.61
2017-09-14T09:07:16.075Z,41.42
2017-09-14T09:08:25.091Z,41.33
2017-09-14T09:09:34.435Z,41.33
2017-09-14T09:10:43.773Z,41.91
2017-09-14T09:11:53.110Z,41.23
2017-09-14T09:13:02.448Z,42
2017-09-14T09:14:11.788Z,41.91
2017-09-14T09:15:20.485Z,41.23
2017-09-14T09:16:30.460Z,41.33
2017-09-14T09:17:39.159Z,41.33
2017-09-14T09:18:48.495Z,41.33
2017-09-14T09:19:58.157Z,41.33
2017-09-14T09:21:07.827Z,41.33
2017-09-14T09:22:16.840Z,41.81
2017-09-14T09:23:26.499Z,41.13
2017-09-14T09:24:35.515Z,40.94
2017-09-14T09:25:44.211Z,41.81
2017-09-14T09:26:53.865Z,41.23
2017-09-14T09:28:03.522Z,40.75
2017-09-14T09:29:12.538Z,40.77
2017-09-14T09:30:21.568Z,40.47
2017-09-14T09:31:31.223Z,40.28
2017-09-14T09:32:40.556Z,39.92
2017-09-14T09:33:49.892Z,39.24
2017-09-14T09:34:59.231Z,38.48
2017-09-14T09:36:07.928Z,38
2017-09-14T09:37:16.942Z,37.15
2017-09-14T09:38:25.961Z,37.17
2017-09-14T09:39:35.616Z,36.88
2017-09-14T09:40:44.954Z,36.2
2017-09-14T09:41:53.659Z,35.64
2017-09-14T09:43:03.316Z,35.64
2017-09-14T09:44:12.658Z,36.32
2017-09-14T09:45:21.682Z,36.32
2017-09-14T09:46:31.024Z,36.3
2017-09-14T09:47:40.362Z,36.58
2017-09-14T09:48:49.701Z,36.78
2017-09-14T09:49:58.397Z,36.58
2017-09-14T09:51:08.060Z,36
2017-09-14T09:52:17.082Z,34.86
2017-09-14T09:53:25.783Z,34.2
2017-09-14T09:54:34.798Z,32.41
2017-09-14T09:55:43.819Z,30.88
2017-09-14T09:56:52.839Z,30.61
2017-09-14T09:58:01.537Z,30.32
2017-09-14T09:59:10.874Z,30.9
2017-09-14T10:00:19.893Z,30.61
2017-09-14T10:01:29.236Z,30.88
2017-09-14T10:02:38.571Z,30.98
2017-09-14T10:03:47.909Z,31.84
2017-09-14T10:04:57.247Z,32.13
2017-09-14T10:06:06.268Z,32.89
2017-09-14T10:07:15.315Z,33.36
2017-09-14T10:08:24.654Z,33.65
2017-09-14T10:09:33.989Z,34.02
2017-09-14T10:10:43.646Z,34.39
2017-09-14T10:11:52.661Z,34.69
2017-09-14T10:13:01.998Z,35.27
2017-09-14T10:14:11.016Z,35.05
2017-09-14T10:15:20.389Z,35.64
2017-09-14T10:16:29.726Z,36.02
2017-09-14T10:17:39.075Z,36
2017-09-14T10:18:48.731Z,36.4
2017-09-14T10:19:57.754Z,36.49
2017-09-14T10:21:06.773Z,36.78
2017-09-14T10:22:15.790Z,36.86
2017-09-14T10:23:25.457Z,36.96
2017-09-14T10:24:35.434Z,36.86
2017-09-14T10:25:44.768Z,36.57
2017-09-14T10:26:53.785Z,36.66
2017-09-14T10:28:03.126Z,36.49
2017-09-14T10:29:12.461Z,36.1
2017-09-14T10:30:21.476Z,36
2017-09-14T10:31:30.813Z,36
2017-09-14T10:32:40.468Z,36.22
2017-09-14T10:33:49.169Z,36
2017-09-14T10:34:58.187Z,36.12
2017-09-14T10:36:07.528Z,36.41
2017-09-14T10:37:16.227Z,35.64
2017-09-14T10:38:25.565Z,36
2017-09-14T10:39:34.901Z,36.2
2017-09-14T10:40:43.928Z,36.4
2017-09-14T10:41:53.269Z,36.76
2017-09-14T10:43:02.602Z,36.96
2017-09-14T10:44:11.940Z,37.34
2017-09-14T10:45:21.277Z,37.24
2017-09-14T10:46:30.948Z,37.24
2017-09-14T10:47:40.924Z,37.34
2017-09-14T10:48:49.941Z,37.52
2017-09-14T10:49:58.957Z,37.63
2017-09-14T10:51:07.974Z,37.62
2017-09-14T10:52:17.310Z,37.15
2017-09-14T10:53:26.325Z,37.71
2017-09-14T10:54:35.663Z,37.9
2017-09-14T10:55:44.681Z,37.81
2017-09-14T10:56:53.695Z,37.62
2017-09-14T10:58:03.353Z,37.71
2017-09-14T10:59:13.020Z,37.42
2017-09-14T11:00:21.720Z,36.86
2017-09-14T11:01:30.738Z,35.04
2017-09-14T11:02:40.075Z,33.04
2017-09-14T11:03:49.412Z,30
2017-09-14T11:04:58.108Z,28.4
2017-09-14T11:06:07.452Z,26.5
2017-09-14T11:07:16.470Z,24.96
2017-09-14T11:08:25.491Z,23.91
2017-09-14T11:09:34.506Z,22.76
2017-09-14T11:10:43.209Z,21.81
2017-09-14T11:11:52.876Z,21.83
2017-09-14T11:13:02.536Z,22.41
2017-09-14T11:14:11.558Z,23.26
2017-09-14T11:15:20.579Z,24.51
2017-09-14T11:16:29.918Z,24.68
2017-09-14T11:17:38.937Z,24.39
2017-09-14T11:18:48.275Z,24.69
2017-09-14T11:19:57.299Z,25.08
2017-09-14T11:21:06.638Z,25.64
2017-09-14T11:22:15.337Z,26.21
2017-09-14T11:23:24.355Z,27.08
2017-09-14T11:24:33.693Z,27.73
2017-09-14T11:25:43.032Z,28.2
2017-09-14T11:26:52.372Z,28.78
2017-09-14T11:28:02.350Z,29.35
2017-09-14T11:29:11.368Z,30.02
2017-09-14T11:30:20.069Z,30.5
2017-09-14T11:31:29.090Z,30.87
2017-09-14T11:32:38.749Z,31.16
2017-09-14T11:33:47.768Z,31.63
2017-09-14T11:34:56.466Z,32.21
2017-09-14T11:36:06.125Z,32.39
2017-09-14T11:37:14.825Z,32.59
2017-09-14T11:38:24.481Z,32.29
2017-09-14T11:39:34.142Z,31.63
2017-09-14T11:40:43.156Z,30.58
2017-09-14T11:41:52.504Z,29.64
2017-09-14T11:43:02.481Z,29.25
2017-09-14T11:44:11.822Z,29.16
2017-09-14T11:45:21.164Z,29.85
2017-09-14T11:46:30.502Z,29.54
2017-09-14T11:47:39.519Z,28.58
2017-09-14T11:48:48.878Z,27.54
2017-09-14T11:49:58.217Z,25.52
2017-09-14T11:51:07.878Z,24.96
2017-09-14T11:52:17.539Z,23.24
2017-09-14T11:53:26.239Z,22.19
2017-09-14T11:54:35.260Z,20.46
2017-09-14T11:55:44.277Z,19.8
2017-09-14T11:56:53.934Z,19.13
2017-09-14T11:58:02.954Z,19.13
2017-09-14T11:59:11.975Z,19.33
2017-09-14T12:00:21.314Z,19.81
2017-09-14T12:01:31.295Z,20.78
2017-09-14T12:02:39.995Z,21.06
2017-09-14T12:03:49.015Z,22.31
2017-09-14T12:04:58.354Z,23.16
2017-09-14T12:06:07.055Z,23.64
2017-09-14T12:07:16.104Z,24.41
2017-09-14T12:08:25.417Z,25.26
2017-09-14T12:09:35.078Z,26.13
2017-09-14T12:10:44.743Z,26.21
2017-09-14T12:11:53.758Z,26.89
2017-09-14T12:13:02.776Z,27.55
2017-09-14T12:14:12.116Z,27.93
2017-09-14T12:15:21.777Z,28.22
2017-09-14T12:16:31.437Z,28.59
2017-09-14T12:17:40.455Z,29.26
2017-09-14T12:18:49.794Z,29.46
2017-09-14T12:19:59.132Z,29.55
2017-09-14T12:21:08.468Z,29.93
2017-09-14T12:22:17.490Z,30.12
2017-09-14T12:23:26.827Z,30.8
2017-09-14T12:24:35.847Z,30.88
2017-09-14T12:25:45.184Z,30.69
2017-09-14T12:26:54.207Z,30.98
2017-09-14T12:28:03.226Z,31.08
2017-09-14T12:29:11.928Z,31.27
2017-09-14T12:30:20.946Z,31.55
2017-09-14T12:31:29.965Z,31.65
2017-09-14T12:32:38.982Z,31.84
2017-09-14T12:33:47.682Z,31.55
2017-09-14T12:34:56.698Z,32.23
2017-09-14T12:36:05.714Z,32.31
2017-09-14T12:37:14.752Z,32.41
2017-09-14T12:38:23.768Z,32.41
2017-09-14T12:39:33.107Z,32.7
2017-09-14T12:40:42.767Z,32.89
2017-09-14T12:41:51.787Z,32.87
2017-09-14T12:43:00.804Z,32.97
2017-09-14T12:44:09.822Z,33.17
2017-09-14T12:45:18.839Z,33.56
2017-09-14T12:46:28.821Z,33.46
2017-09-14T12:47:37.839Z,33.92
2017-09-14T12:48:47.497Z,33.92
2017-09-14T12:49:56.515Z,34.11
2017-09-14T12:51:05.536Z,34.49
2017-09-14T12:52:14.876Z,34.97
2017-09-14T12:53:24.215Z,34.88
2017-09-14T12:54:33.230Z,35.07
2017-09-14T12:55:42.568Z,34.96
2017-09-14T12:56:51.907Z,35.35
2017-09-14T12:58:01.245Z,35.15
2017-09-14T12:59:10.266Z,35.64
2017-09-14T13:00:19.285Z,35.83
2017-09-14T13:01:28.303Z,35.93
2017-09-14T13:02:37.640Z,36.22
2017-09-14T13:03:46.978Z,36
2017-09-14T13:04:55.994Z,36.1
2017-09-14T13:06:05.010Z,36.4
2017-09-14T13:07:14.674Z,36.1
2017-09-14T13:08:24.017Z,36.58
2017-09-14T13:09:33.035Z,36.4
2017-09-14T13:10:42.376Z,36.68
2017-09-14T13:11:51.073Z,36.78
2017-09-14T13:13:00.409Z,36.49
2017-09-14T13:14:09.430Z,36.57
2017-09-14T13:15:18.773Z,36.78
2017-09-14T13:16:27.472Z,36.78
2017-09-14T13:17:37.132Z,36.68
2017-09-14T13:18:45.829Z,36.49
2017-09-14T13:19:54.525Z,36.68
2017-09-14T13:21:03.874Z,36.98
2017-09-14T13:22:13.859Z,36.78
2017-09-14T13:23:23.193Z,36.78
2017-09-14T13:24:32.215Z,36.58
2017-09-14T13:25:41.563Z,36.88
2017-09-14T13:26:50.901Z,36.78
2017-09-14T13:27:59.920Z,36.68
2017-09-14T13:29:09.258Z,36.78
2017-09-14T13:30:18.597Z,36.88
2017-09-14T13:31:28.257Z,36.78
2017-09-14T13:32:37.930Z,36.58
2017-09-14T13:33:46.628Z,36.78
2017-09-14T13:34:55.971Z,36.88
2017-09-14T13:36:05.308Z,36.88
2017-09-14T13:37:14.006Z,36.88
2017-09-14T13:38:23.021Z,37.26
2017-09-14T13:39:32.685Z,37.36
2017-09-14T13:40:41.702Z,36.98
2017-09-14T13:41:51.041Z,36.88
2017-09-14T13:43:00.060Z,36.88
2017-09-14T13:44:08.758Z,37.26
2017-09-14T13:45:17.454Z,37.46
2017-09-14T13:46:27.110Z,37.36
2017-09-14T13:47:36.124Z,37.05
2017-09-14T13:48:45.460Z,37.54
2017-09-14T13:49:54.796Z,37.63
2017-09-14T13:51:03.494Z,37.34
2017-09-14T13:52:12.191Z,37.44
2017-09-14T13:53:21.527Z,37.63
2017-09-14T13:54:30.866Z,37.24
2017-09-14T13:55:40.202Z,37.63
2017-09-14T13:56:48.902Z,37.63
2017-09-14T13:57:58.241Z,37.73
2017-09-14T13:59:07.260Z,37.82
2017-09-14T14:00:16.275Z,37.73
2017-09-14T14:01:25.619Z,37.92
2017-09-14T14:02:34.317Z,37.81
2017-09-14T14:03:43.015Z,37.82
2017-09-14T14:04:52.035Z,38.29
2017-09-14T14:06:01.372Z,38.2
2017-09-14T14:07:11.348Z,38.29
2017-09-14T14:08:20.367Z,38.39
2017-09-14T14:09:30.028Z,38.29
2017-09-14T14:10:39.365Z,38.2
2017-09-14T14:11:48.701Z,38.29
2017-09-14T14:12:58.359Z,38.29
2017-09-14T14:14:07.698Z,38.29
2017-09-14T14:15:17.037Z,38.48
2017-09-14T14:16:26.374Z,38.29
2017-09-14T14:17:35.390Z,38.2
2017-09-14T14:18:44.405Z,38.1
2017-09-14T14:19:53.746Z,37.81
2017-09-14T14:21:02.446Z,38
2017-09-14T14:22:11.460Z,38.1
2017-09-14T14:23:20.479Z,38.29
2017-09-14T14:24:29.173Z,37.9
2017-09-14T14:25:38.191Z,38.2
2017-09-14T14:26:46.888Z,38.29
2017-09-14T14:27:55.904Z,38.48
2017-09-14T14:29:04.601Z,38.39
2017-09-14T14:30:13.620Z,38.29
2017-09-14T14:31:22.637Z,38.48
2017-09-14T14:32:31.981Z,38.39
2017-09-14T14:33:41.957Z,38.58
2017-09-14T14:34:51.618Z,38.48
2017-09-14T14:36:00.316Z,38.39
2017-09-14T14:37:09.339Z,38.39
2017-09-14T14:38:18.998Z,38.28
2017-09-14T14:39:28.660Z,38.66
2017-09-14T14:40:38.001Z,38.66
2017-09-14T14:41:47.040Z,38.28
2017-09-14T14:42:56.056Z,38.29
2017-09-14T14:44:06.041Z,37.98
2017-09-14T14:45:15.380Z,38.2
2017-09-14T14:46:24.074Z,38.08
2017-09-14T14:47:33.412Z,38.2
2017-09-14T14:48:42.754Z,38.28
2017-09-14T14:49:51.773Z,38.18
2017-09-14T14:51:01.435Z,38.2
2017-09-14T14:52:10.459Z,37.7
2017-09-14T14:53:20.130Z,37.88
2017-09-14T14:54:28.827Z,37.7